createdAt,value
2022-10-06T00:00:47.398Z,102499.78
2022-10-06T00:03:15.316Z,102499.91
2022-10-06T00:05:44.671Z,102503.53
2022-10-06T00:08:12.609Z,102507.16
2022-10-06T00:10:40.860Z,102463.44
2022-10-06T00:13:09.475Z,102507.25
2022-10-06T00:15:37.413Z,102505.56
2022-10-06T00:18:05.567Z,102514.50
2022-10-06T00:20:33.496Z,102516.28
2022-10-06T00:23:03.368Z,102523.53
2022-10-06T00:25:31.284Z,102519.84
2022-10-06T00:27:59.249Z,102523.47
2022-10-06T00:30:28.121Z,102529.63
2022-10-06T00:32:57.348Z,102524.34
2022-10-06T00:35:25.517Z,102524.41
2022-10-06T00:37:53.428Z,102521.72
2022-10-06T00:40:22.960Z,102527.03
2022-10-06T00:42:53.299Z,102526.75
2022-10-06T00:45:24.181Z,102524.06
2022-10-06T00:47:52.172Z,102527.56
2022-10-06T00:50:20.091Z,102539.22
2022-10-06T00:52:48.022Z,102539.22
2022-10-06T00:55:15.997Z,102535.72
2022-10-06T00:57:46.791Z,102546.50
2022-10-06T01:00:15.149Z,102547.56
2022-10-06T01:02:44.864Z,102550.34
2022-10-06T01:05:16.116Z,102556.69
2022-10-06T01:07:43.987Z,102568.38
2022-10-06T01:10:11.917Z,102563.06
2022-10-06T01:12:39.984Z,102572.72
2022-10-06T01:15:10.629Z,102564.56
2022-10-06T01:17:39.580Z,102574.31
2022-10-06T01:20:09.156Z,102566.19
2022-10-06T01:22:39.687Z,102557.16
2022-10-06T01:25:08.797Z,102558.88
2022-10-06T01:27:37.344Z,102562.47
2022-10-06T01:30:05.902Z,102564.34
2022-10-06T01:32:34.948Z,102561.78
2022-10-06T01:35:02.845Z,102568.25
2022-10-06T01:37:30.751Z,102569.19
2022-10-06T01:40:00.017Z,102568.38
2022-10-06T01:42:31.806Z,102566.84
2022-10-06T01:44:59.703Z,102570.03
2022-10-06T01:47:27.735Z,102573.56
2022-10-06T01:49:55.800Z,102577.72
2022-10-06T01:52:24.031Z,102572.00
2022-10-06T01:54:51.923Z,102568.97
2022-10-06T01:57:21.775Z,102574.91
2022-10-06T01:59:54.428Z,102570.97
2022-10-06T02:02:22.863Z,102576.00
2022-10-06T02:04:50.709Z,102572.09
2022-10-06T02:07:18.889Z,102577.69
2022-10-06T02:09:46.762Z,102577.06
2022-10-06T02:12:14.690Z,102580.09
2022-10-06T02:14:44.006Z,102577.69
2022-10-06T02:17:12.035Z,102578.03
2022-10-06T02:19:39.929Z,102572.91
2022-10-06T02:22:07.788Z,102571.22
2022-10-06T02:24:35.718Z,102570.47
2022-10-06T02:27:03.624Z,102570.47
2022-10-06T02:29:31.552Z,102567.97
2022-10-06T02:32:00.779Z,102584.72
2022-10-06T02:34:29.336Z,102581.94
2022-10-06T02:36:57.766Z,102571.22
2022-10-06T02:39:25.687Z,102582.75
2022-10-06T02:41:53.586Z,102585.28
2022-10-06T02:44:21.558Z,102586.81
2022-10-06T02:46:49.649Z,102583.06
2022-10-06T02:49:19.039Z,102591.81
2022-10-06T02:51:47.370Z,102593.44
2022-10-06T02:54:15.568Z,102595.13
2022-10-06T02:56:43.459Z,102594.22
2022-10-06T02:59:11.399Z,102591.38
2022-10-06T03:01:39.378Z,102595.88
2022-10-06T03:04:07.429Z,102588.84
2022-10-06T03:06:36.885Z,102600.41
2022-10-06T03:09:05.817Z,102593.34
2022-10-06T03:11:34.481Z,102596.06
2022-10-06T03:14:02.362Z,102602.31
2022-10-06T03:16:32.006Z,102600.56
2022-10-06T03:19:00.164Z,102600.50
2022-10-06T03:21:29.277Z,102609.53
2022-10-06T03:23:58.642Z,102612.31
2022-10-06T03:26:27.796Z,102613.22
2022-10-06T03:28:55.695Z,102612.31
2022-10-06T03:31:23.842Z,102607.81
2022-10-06T03:33:51.874Z,102609.69
2022-10-06T03:36:22.002Z,102614.09
2022-10-06T03:38:49.940Z,102615.97
2022-10-06T03:41:20.335Z,102617.78
2022-10-06T03:43:49.387Z,102622.16
2022-10-06T03:46:18.759Z,102623.78
2022-10-06T03:48:46.710Z,102627.25
2022-10-06T03:51:15.494Z,102620.19
2022-10-06T03:53:44.873Z,102620.09
2022-10-06T03:56:13.481Z,102624.47
2022-10-06T03:58:45.431Z,102633.47
2022-10-06T04:01:15.137Z,102635.16
2022-10-06T04:03:43.167Z,102642.19
2022-10-06T04:06:12.483Z,102641.22
2022-10-06T04:08:40.902Z,102636.75
2022-10-06T04:11:09.493Z,102641.22
2022-10-06T04:13:37.602Z,102636.81
2022-10-06T04:16:14.476Z,102644.78
2022-10-06T04:18:42.531Z,102635.03
2022-10-06T04:21:10.672Z,102640.31
2022-10-06T04:23:38.565Z,102654.59
2022-10-06T04:26:09.463Z,102657.34
2022-10-06T04:28:38.256Z,102658.22
2022-10-06T04:31:12.858Z,102659.13
2022-10-06T04:33:42.729Z,102655.63
2022-10-06T04:36:12.229Z,102660.19
2022-10-06T04:38:40.139Z,102654.81
2022-10-06T04:41:08.285Z,102654.75
2022-10-06T04:43:36.228Z,102659.22
2022-10-06T04:46:23.923Z,102641.69
2022-10-06T04:48:54.331Z,102662.78
2022-10-06T04:51:22.838Z,102665.34
2022-10-06T04:53:50.870Z,102668.00
2022-10-06T04:56:19.462Z,102665.25
2022-10-06T04:58:47.987Z,102672.38
2022-10-06T05:01:17.119Z,102674.06
2022-10-06T05:03:45.850Z,102666.78
2022-10-06T05:06:16.938Z,102668.47
2022-10-06T05:08:44.972Z,102673.78
2022-10-06T05:11:15.250Z,102674.56
2022-10-06T05:13:46.122Z,102667.34
2022-10-06T05:16:15.343Z,102669.38
2022-10-06T05:18:43.300Z,102672.94
2022-10-06T05:21:13.177Z,102677.38
2022-10-06T05:23:42.857Z,102674.00
2022-10-06T05:26:12.084Z,102687.19
2022-10-06T05:28:40.156Z,102685.25
2022-10-06T05:31:08.834Z,102692.50
2022-10-06T05:33:37.148Z,102694.31
2022-10-06T05:36:05.818Z,102702.44
2022-10-06T05:38:33.794Z,102695.31
2022-10-06T05:41:03.574Z,102695.25
2022-10-06T05:43:31.698Z,102696.13
2022-10-06T05:46:00.324Z,102698.75
2022-10-06T05:48:28.731Z,102696.16
2022-10-06T05:50:59.858Z,102707.75
2022-10-06T05:53:27.849Z,102721.34
2022-10-06T05:56:06.219Z,102706.28
2022-10-06T05:58:34.819Z,102717.97
2022-10-06T06:01:10.112Z,102714.47
2022-10-06T06:03:38.227Z,102721.63
2022-10-06T06:06:06.472Z,102724.16
2022-10-06T06:08:34.436Z,102744.56
2022-10-06T06:11:10.142Z,102721.06
2022-10-06T06:13:38.182Z,102738.13
2022-10-06T06:16:07.069Z,102744.72
2022-10-06T06:18:35.630Z,102747.09
2022-10-06T06:21:04.699Z,102747.63
2022-10-06T06:23:33.288Z,102753.44
2022-10-06T06:26:02.704Z,102756.47
2022-10-06T06:28:32.967Z,102763.03
2022-10-06T06:31:05.064Z,102760.66
2022-10-06T06:33:33.242Z,102762.69
2022-10-06T06:36:03.438Z,102764.69
2022-10-06T06:38:32.979Z,102756.72
2022-10-06T06:41:01.177Z,102758.59
2022-10-06T06:43:29.697Z,102765.06
2022-10-06T06:46:04.620Z,102766.84
2022-10-06T06:48:33.171Z,102751.09
2022-10-06T06:51:01.432Z,102763.50
2022-10-06T06:53:29.455Z,102764.50
2022-10-06T06:55:58.154Z,102762.75
2022-10-06T06:58:28.071Z,102771.47
2022-10-06T07:00:56.352Z,102775.69
2022-10-06T07:03:55.645Z,102778.19
2022-10-06T07:06:14.816Z,102782.38
2022-10-06T07:08:43.797Z,102771.44
2022-10-06T07:11:13.534Z,102779.91
2022-10-06T07:13:42.389Z,102789.38
2022-10-06T07:16:29.517Z,102790.00
2022-10-06T07:19:19.089Z,102789.97
2022-10-06T07:22:08.869Z,102777.16
2022-10-06T07:24:54.646Z,102779.69
2022-10-06T07:27:23.088Z,102791.84
2022-10-06T07:29:54.467Z,102792.56
2022-10-06T07:32:22.933Z,102796.94
2022-10-06T07:34:55.934Z,102803.84
2022-10-06T07:37:24.504Z,102801.81
2022-10-06T07:39:52.411Z,102801.56
2022-10-06T07:42:20.341Z,102809.19
2022-10-06T07:45:08.786Z,102814.06
2022-10-06T07:47:38.284Z,102824.47
2022-10-06T07:50:08.554Z,102818.34
2022-10-06T07:52:39.473Z,102819.50
2022-10-06T07:55:08.407Z,102819.75
2022-10-06T07:57:37.125Z,102824.16
2022-10-06T08:00:07.446Z,102811.38
2022-10-06T08:02:36.113Z,102833.00
2022-10-06T08:05:05.123Z,102821.19
2022-10-06T08:07:34.534Z,102821.81
2022-10-06T08:10:02.622Z,102816.59
2022-10-06T08:12:37.845Z,102821.91
2022-10-06T08:15:07.627Z,102826.94
2022-10-06T08:17:36.664Z,102771.22
2022-10-06T08:20:04.928Z,102819.16
2022-10-06T08:22:34.395Z,102828.13
2022-10-06T08:25:06.836Z,102829.19
2022-10-06T08:27:35.622Z,102831.88
2022-10-06T08:30:04.052Z,102831.81
2022-10-06T08:32:32.234Z,102839.88
2022-10-06T08:35:00.250Z,102837.97
2022-10-06T08:37:28.147Z,102842.34
2022-10-06T08:39:57.567Z,102839.50
2022-10-06T08:42:29.670Z,102840.03
2022-10-06T08:44:59.424Z,102842.41
2022-10-06T08:47:29.262Z,102844.47
2022-10-06T08:49:57.764Z,102843.38
2022-10-06T08:52:36.216Z,102840.88
2022-10-06T08:55:09.845Z,102842.31
2022-10-06T08:57:39.925Z,102835.84
2022-10-06T09:00:12.175Z,102839.97
2022-10-06T09:02:50.955Z,102838.91
2022-10-06T09:05:25.398Z,102846.66
2022-10-06T09:07:59.426Z,102841.91
2022-10-06T09:10:38.477Z,102843.59
2022-10-06T09:13:07.962Z,102845.22
2022-10-06T09:15:37.575Z,102842.81
2022-10-06T09:18:10.751Z,102849.72
2022-10-06T09:20:42.576Z,102848.19
2022-10-06T09:23:14.718Z,102860.03
2022-10-06T09:25:44.916Z,102866.22
2022-10-06T09:28:15.922Z,102860.13
2022-10-06T09:30:44.061Z,102853.38
2022-10-06T09:33:17.894Z,102859.09
2022-10-06T09:36:06.258Z,102848.69
2022-10-06T09:38:54.366Z,102852.66
2022-10-06T09:41:28.718Z,102840.94
2022-10-06T09:43:58.617Z,102863.59
2022-10-06T09:46:34.024Z,102875.63
2022-10-06T09:49:12.553Z,102878.41
2022-10-06T09:51:40.470Z,102871.78
2022-10-06T09:54:14.263Z,102876.38
2022-10-06T09:56:43.644Z,102876.97
2022-10-06T09:59:20.613Z,102880.38
2022-10-06T10:01:55.333Z,102894.53
2022-10-06T10:04:24.709Z,102885.41
2022-10-06T10:06:56.606Z,102890.44
2022-10-06T10:09:29.049Z,102887.03
2022-10-06T10:12:31.365Z,102879.59
2022-10-06T10:15:04.523Z,102879.84
2022-10-06T10:17:41.195Z,102884.38
2022-10-06T10:20:28.313Z,102887.53
2022-10-06T10:22:56.797Z,102871.97
2022-10-06T10:25:48.875Z,102885.41
2022-10-06T10:28:35.393Z,102870.16
2022-10-06T10:31:06.300Z,102878.56
2022-10-06T10:33:43.205Z,102880.34
2022-10-06T10:36:17.973Z,102872.28
2022-10-06T10:38:46.838Z,102871.75
2022-10-06T10:41:16.602Z,102874.53
2022-10-06T10:43:48.066Z,102867.56
2022-10-06T10:46:17.776Z,102872.69
2022-10-06T10:48:47.374Z,102878.94
2022-10-06T10:51:16.472Z,102884.47
2022-10-06T10:53:47.522Z,102883.63
2022-10-06T10:56:16.273Z,102885.34
2022-10-06T10:58:45.651Z,102886.94
2022-10-06T11:01:23.203Z,102884.16
2022-10-06T11:06:32.081Z,102872.19
2022-10-06T11:09:02.602Z,102886.16
2022-10-06T11:12:11.709Z,102879.00
2022-10-06T11:14:50.407Z,102879.88
2022-10-06T11:17:25.103Z,102872.28
2022-10-06T11:19:55.279Z,102876.28
2022-10-06T11:22:27.024Z,102876.41
2022-10-06T11:24:58.191Z,102876.69
2022-10-06T11:27:36.434Z,102871.13
2022-10-06T11:30:07.255Z,102869.44
2022-10-06T11:32:43.203Z,102876.69
2022-10-06T11:35:19.750Z,102870.84
2022-10-06T11:37:49.853Z,102863.22
2022-10-06T11:40:28.273Z,102878.00
2022-10-06T11:42:58.304Z,102864.13
2022-10-06T11:45:30.166Z,102864.72
2022-10-06T11:48:12.628Z,102848.91
2022-10-06T11:50:42.691Z,102862.72
2022-10-06T11:53:24.331Z,102843.41
2022-10-06T11:56:23.713Z,102840.78
2022-10-06T11:59:10.557Z,102851.88
2022-10-06T12:01:59.640Z,102845.97
2022-10-06T12:04:27.677Z,102861.91
2022-10-06T12:07:05.329Z,102859.47
2022-10-06T12:09:53.911Z,102856.03
2022-10-06T12:13:06.646Z,102848.13
2022-10-06T12:17:06.017Z,102857.59
2022-10-06T12:18:57.801Z,102842.88
2022-10-06T12:21:33.712Z,102854.91
2022-10-06T12:24:06.321Z,102855.53
2022-10-06T12:26:51.049Z,102850.41
2022-10-06T12:29:34.528Z,102841.66
2022-10-06T12:32:09.646Z,102857.34
2022-10-06T12:35:03.273Z,102853.16
2022-10-06T12:37:54.910Z,102837.38
2022-10-06T12:40:51.345Z,102842.53
2022-10-06T12:43:33.233Z,102839.91
2022-10-06T12:46:04.204Z,102847.75
2022-10-06T12:48:37.161Z,102841.44
2022-10-06T12:51:10.419Z,102839.69
2022-10-06T12:53:39.657Z,102834.53
2022-10-06T12:56:10.700Z,102824.94
2022-10-06T12:58:39.683Z,102821.88
2022-10-06T13:01:10.189Z,102825.47
2022-10-06T13:03:38.112Z,102819.59
2022-10-06T13:06:08.569Z,102821.47
2022-10-06T13:08:37.275Z,102829.16
2022-10-06T13:11:17.303Z,102811.63
2022-10-06T13:13:48.280Z,102808.34
2022-10-06T13:16:16.452Z,102810.63
2022-10-06T13:18:44.409Z,102799.19
2022-10-06T13:21:14.308Z,102804.63
2022-10-06T13:23:42.259Z,102801.34
2022-10-06T13:26:19.324Z,102795.28
2022-10-06T13:28:48.359Z,102807.38
2022-10-06T13:31:21.395Z,102802.47
2022-10-06T13:33:51.178Z,102779.75
2022-10-06T13:36:23.463Z,102792.44
2022-10-06T13:38:51.456Z,102798.00
2022-10-06T13:41:22.892Z,102800.03
2022-10-06T13:43:52.858Z,102785.00
2022-10-06T13:46:21.834Z,102774.63
2022-10-06T13:48:51.183Z,102796.19
2022-10-06T13:51:22.845Z,102786.84
2022-10-06T13:53:51.236Z,102784.06
2022-10-06T13:56:36.528Z,102784.81
2022-10-06T13:59:33.294Z,102778.63
2022-10-06T14:02:03.113Z,102773.19
2022-10-06T14:04:34.655Z,102763.91
2022-10-06T14:07:06.940Z,102769.56
2022-10-06T14:09:35.043Z,102754.28
2022-10-06T14:12:04.284Z,102764.09
2022-10-06T14:14:32.335Z,102762.53
2022-10-06T14:17:00.317Z,102763.13
2022-10-06T14:19:36.363Z,102760.78
2022-10-06T14:22:06.052Z,102765.44
2022-10-06T14:24:37.467Z,102762.88
2022-10-06T14:27:06.500Z,102747.00
2022-10-06T14:29:37.868Z,102759.16
2022-10-06T14:32:10.053Z,102759.38
2022-10-06T14:34:40.678Z,102756.66
2022-10-06T14:37:13.315Z,102758.03
2022-10-06T14:39:41.388Z,102755.50
2022-10-06T14:42:12.326Z,102736.72
2022-10-06T14:44:40.268Z,102753.38
2022-10-06T14:47:09.260Z,102747.38
2022-10-06T14:49:37.500Z,102745.75
2022-10-06T14:52:05.598Z,102740.06
2022-10-06T14:54:35.216Z,102736.09
2022-10-06T14:57:03.108Z,102729.97
2022-10-06T14:59:31.906Z,102731.34
2022-10-06T15:01:59.865Z,102735.53
2022-10-06T15:04:28.212Z,102727.88
2022-10-06T15:07:13.842Z,102733.00
2022-10-06T15:09:43.761Z,102724.88
2022-10-06T15:12:11.603Z,102735.56
2022-10-06T15:14:39.927Z,102713.16
2022-10-06T15:17:08.647Z,102724.69
2022-10-06T15:19:36.717Z,102712.50
2022-10-06T15:22:06.399Z,102724.16
2022-10-06T15:24:34.597Z,102721.47
2022-10-06T15:27:31.001Z,102714.56
2022-10-06T15:29:59.230Z,102711.13
2022-10-06T15:32:35.945Z,102714.78
2022-10-06T15:35:03.820Z,102703.03
2022-10-06T15:37:31.782Z,102704.00
2022-10-06T15:39:59.637Z,102702.25
2022-10-06T15:42:28.876Z,102701.78
2022-10-06T15:44:56.772Z,102710.69
2022-10-06T15:47:24.977Z,102690.38
2022-10-06T15:49:52.825Z,102699.59
2022-10-06T15:52:20.729Z,102686.00
2022-10-06T15:54:48.678Z,102691.13
2022-10-06T15:57:20.592Z,102694.84
2022-10-06T15:59:50.507Z,102670.63
2022-10-06T16:02:20.279Z,102681.63
2022-10-06T16:05:15.982Z,102683.19
2022-10-06T16:07:43.889Z,102668.59
2022-10-06T16:10:12.205Z,102685.59
2022-10-06T16:12:40.191Z,102681.25
2022-10-06T16:15:10.902Z,102685.81
2022-10-06T16:17:38.827Z,102681.72
2022-10-06T16:20:07.588Z,102670.66
2022-10-06T16:22:35.838Z,102684.53
2022-10-06T16:25:03.950Z,102687.13
2022-10-06T16:27:33.575Z,102680.75
2022-10-06T16:30:01.698Z,102677.72
2022-10-06T16:32:31.015Z,102652.91
2022-10-06T16:34:58.954Z,102665.25
2022-10-06T16:37:26.877Z,102668.25
2022-10-06T16:39:54.772Z,102674.97
2022-10-06T16:42:22.716Z,102665.59
2022-10-06T16:44:50.595Z,102661.06
2022-10-06T16:47:18.487Z,102663.88
2022-10-06T16:49:47.743Z,102657.75
2022-10-06T16:52:15.672Z,102662.13
2022-10-06T16:54:43.541Z,102663.94
2022-10-06T16:57:11.564Z,102662.56
2022-10-06T16:59:44.398Z,102635.22
2022-10-06T17:02:14.530Z,102661.63
2022-10-06T17:04:42.472Z,102661.16
2022-10-06T17:07:11.946Z,102654.97
2022-10-06T17:09:55.884Z,102660.47
2022-10-06T17:12:27.933Z,102658.78
2022-10-06T17:14:56.136Z,102637.94
2022-10-06T17:17:24.158Z,102658.34
2022-10-06T17:19:53.074Z,102656.81
2022-10-06T17:22:22.747Z,102646.72
2022-10-06T17:24:50.820Z,102644.78
2022-10-06T17:27:20.646Z,102663.81
2022-10-06T17:29:49.280Z,102648.56
2022-10-06T17:32:17.261Z,102639.13
2022-10-06T17:34:45.358Z,102636.22
2022-10-06T17:37:13.358Z,102662.03
2022-10-06T17:39:47.083Z,102663.06
2022-10-06T17:42:16.305Z,102660.44
2022-10-06T17:44:44.767Z,102660.44
2022-10-06T17:47:12.761Z,102665.19
2022-10-06T17:49:40.713Z,102665.09
2022-10-06T17:52:08.711Z,102663.38
2022-10-06T17:54:36.588Z,102664.53
2022-10-06T17:57:06.024Z,102666.50
2022-10-06T17:59:33.936Z,102664.06
2022-10-06T18:02:02.775Z,102651.88
2022-10-06T18:04:30.934Z,102643.56
2022-10-06T18:06:58.844Z,102652.00
2022-10-06T18:09:26.727Z,102662.91
2022-10-06T18:11:56.809Z,102656.59
2022-10-06T18:14:27.214Z,102667.47
2022-10-06T18:16:57.624Z,102658.53
2022-10-06T18:19:29.353Z,102657.63
2022-10-06T18:21:58.190Z,102662.44
2022-10-06T18:24:27.409Z,102622.53
2022-10-06T18:26:56.372Z,102652.59
2022-10-06T18:29:38.734Z,102648.59
2022-10-06T18:37:43.374Z,102663.66
2022-10-06T18:40:12.385Z,102664.06
2022-10-06T18:42:40.327Z,102665.19
2022-10-06T18:45:29.145Z,102662.50
2022-10-06T18:48:14.301Z,102663.56
2022-10-06T18:50:42.732Z,102666.34
2022-10-06T18:53:10.589Z,102661.84
2022-10-06T18:55:38.515Z,102650.06
2022-10-06T18:58:06.450Z,102657.91
2022-10-06T19:00:36.000Z,102653.22
2022-10-06T19:03:05.814Z,102638.25
2022-10-06T19:05:35.189Z,102656.66
2022-10-06T19:08:03.094Z,102650.41
2022-10-06T19:10:30.965Z,102655.78
2022-10-06T19:12:59.373Z,102656.66
2022-10-06T19:15:27.390Z,102656.66
2022-10-06T19:17:56.677Z,102655.03
2022-10-06T19:20:24.560Z,102647.13
2022-10-06T19:22:52.457Z,102651.41
2022-10-06T19:25:21.828Z,102644.53
2022-10-06T19:27:51.161Z,102641.66
2022-10-06T19:30:19.105Z,102647.78
2022-10-06T19:32:47.012Z,102654.69
2022-10-06T19:35:18.502Z,102640.44
2022-10-06T19:37:46.628Z,102645.69
2022-10-06T19:40:14.633Z,102646.75
2022-10-06T19:42:47.539Z,102650.63
2022-10-06T19:45:16.014Z,102641.66
2022-10-06T19:47:45.183Z,102647.94
2022-10-06T19:50:13.886Z,102640.72
2022-10-06T19:52:43.274Z,102639.84
2022-10-06T19:55:11.163Z,102616.09
2022-10-06T19:57:39.056Z,102636.41
2022-10-06T20:00:08.259Z,102638.25
2022-10-06T20:02:39.924Z,102639.34
2022-10-06T20:05:10.595Z,102643.06
2022-10-06T20:07:38.468Z,102651.09
2022-10-06T20:10:08.418Z,102643.81
2022-10-06T20:12:38.379Z,102639.44
2022-10-06T20:15:07.215Z,102645.03
2022-10-06T20:17:37.569Z,102621.28
2022-10-06T20:20:06.037Z,102637.88
2022-10-06T20:22:33.958Z,102630.75
2022-10-06T20:25:02.520Z,102631.47
2022-10-06T20:27:31.840Z,102628.97
2022-10-06T20:29:59.661Z,102627.94
2022-10-06T20:32:27.510Z,102625.19
2022-10-06T20:34:55.335Z,102627.88
2022-10-06T20:37:23.203Z,102621.69
2022-10-06T20:40:08.282Z,102622.59
2022-10-06T20:42:37.552Z,102619.00
2022-10-06T20:45:07.118Z,102615.50
2022-10-06T20:47:34.963Z,102613.59
2022-10-06T20:50:02.807Z,102602.97
2022-10-06T20:52:31.675Z,102609.94
2022-10-06T20:54:59.611Z,102611.16
2022-10-06T20:57:32.893Z,102613.00
2022-10-06T21:00:03.299Z,102611.47
2022-10-06T21:02:32.062Z,102612.47
2022-10-06T21:05:01.558Z,102613.75
2022-10-06T21:07:29.476Z,102609.38
2022-10-06T21:09:57.423Z,102608.53
2022-10-06T21:12:25.420Z,102603.09
2022-10-06T21:14:53.329Z,102605.91
2022-10-06T21:17:22.563Z,102605.97
2022-10-06T21:19:50.497Z,102607.88
2022-10-06T21:22:18.426Z,102602.53
2022-10-06T21:24:46.459Z,102599.91
2022-10-06T21:27:14.390Z,102603.56
2022-10-06T21:29:42.635Z,102600.06
2022-10-06T21:32:10.714Z,102593.66
2022-10-06T21:34:40.136Z,102600.88
2022-10-06T21:37:07.978Z,102591.13
2022-10-06T21:39:35.910Z,102587.75
2022-10-06T21:42:04.109Z,102579.91
2022-10-06T21:44:32.085Z,102577.94
2022-10-06T21:47:02.569Z,102584.28
2022-10-06T21:49:30.622Z,102569.00
2022-10-06T21:52:04.590Z,102569.72
2022-10-06T21:54:32.571Z,102576.88
2022-10-06T21:57:00.435Z,102563.44
2022-10-06T21:59:28.274Z,102559.72
2022-10-06T22:01:56.814Z,102564.88
2022-10-06T22:04:24.918Z,102562.06
2022-10-06T22:06:52.868Z,102555.75
2022-10-06T22:09:22.197Z,102553.19
2022-10-06T22:11:50.112Z,102549.81
2022-10-06T22:14:18.909Z,102553.59
2022-10-06T22:16:46.814Z,102542.03
2022-10-06T22:19:14.922Z,102542.16
2022-10-06T22:21:43.539Z,102538.88
2022-10-06T22:24:12.312Z,102540.63
2022-10-06T22:26:41.932Z,102541.22
2022-10-06T22:29:11.463Z,102534.84
2022-10-06T22:31:40.205Z,102539.84
2022-10-06T22:34:08.245Z,102532.53
2022-10-06T22:36:36.088Z,102526.16
2022-10-06T22:39:04.015Z,102521.63
2022-10-06T22:41:31.936Z,102517.19
2022-10-06T22:44:01.270Z,102513.72
2022-10-06T22:46:30.307Z,102512.03
2022-10-06T22:48:58.306Z,102512.25
2022-10-06T22:51:26.286Z,102504.38
2022-10-06T22:53:57.884Z,102508.38
2022-10-06T22:56:26.485Z,102502.81
2022-10-06T22:58:54.355Z,102494.84
2022-10-06T23:01:23.603Z,102493.03
2022-10-06T23:03:51.466Z,102497.53
2022-10-06T23:06:19.378Z,102482.34
2022-10-06T23:08:47.267Z,102484.88
2022-10-06T23:11:15.914Z,102481.41
2022-10-06T23:13:44.484Z,102476.97
2022-10-06T23:16:13.115Z,102474.28
2022-10-06T23:18:42.809Z,102483.53
2022-10-06T23:21:11.418Z,102476.09
2022-10-06T23:23:39.313Z,102483.94
2022-10-06T23:26:07.598Z,102478.53
2022-10-06T23:28:35.508Z,102480.31
2022-10-06T23:31:04.953Z,102471.53
2022-10-06T23:33:32.918Z,102470.13
2022-10-06T23:36:03.032Z,102459.66
2022-10-06T23:38:30.910Z,102465.19
2022-10-06T23:40:58.924Z,102467.00
2022-10-06T23:43:29.090Z,102461.78
2022-10-06T23:45:57.239Z,102458.16
2022-10-06T23:48:25.239Z,102449.19
2022-10-06T23:50:57.310Z,102453.69
2022-10-06T23:53:26.641Z,102446.59
2022-10-06T23:55:54.503Z,102433.19
2022-10-06T23:58:22.637Z,102423.59
